Time;durP1;ratioP1;P1;durP2;ratioP2;P2;SDS_P1;SDS_P2;PMS_P1;PMS_P2;Temp;Humidity;BMP_temperature;BMP_pressure;BME280_temperature;BME280_humidity;BME280_pressure;Samples;Min_cycle;Max_cycle;Signal;HPM_P1;HPM_P2
2023/07/14 00:01:29;;;;;;;21.90;20.37;;;17.40;99.90;;;;;;5096967;28;20182;-47
2023/07/14 00:03:56;;;;;;;22.00;20.67;;;17.40;99.90;;;;;;5115594;28;20265;-43
2023/07/14 00:06:22;;;;;;;27.30;25.50;;;17.40;99.90;;;;;;5097856;28;20177;-46
2023/07/14 00:08:48;;;;;;;25.53;23.93;;;17.40;99.90;;;;;;5099144;28;20176;-44
2023/07/14 00:11:23;;;;;;;28.43;26.57;;;17.30;99.90;;;;;;5098913;28;20236;-44
2023/07/14 00:13:50;;;;;;;31.40;29.40;;;17.40;99.90;;;;;;5116408;28;20174;-48
2023/07/14 00:16:22;;;;;;;29.67;27.83;;;17.50;99.90;;;;;;5099199;28;20171;-43
2023/07/14 00:18:48;;;;;;;31.93;29.23;;;17.50;99.90;;;;;;5117317;28;20595;-44
2023/07/14 00:21:17;;;;;;;31.13;29.17;;;17.50;99.90;;;;;;5102206;28;20213;-44
2023/07/14 00:23:43;;;;;;;31.20;29.13;;;17.60;99.90;;;;;;5102116;28;20164;-45
2023/07/14 00:26:18;;;;;;;27.30;25.70;;;17.50;99.90;;;;;;5119439;28;20251;-45
2023/07/14 00:28:45;;;;;;;26.57;24.87;;;17.40;99.90;;;;;;5119373;28;20243;-43
2023/07/14 00:31:16;;;;;;;26.63;25.00;;;17.30;99.90;;;;;;5118809;28;20238;-45
2023/07/14 00:33:48;;;;;;;28.77;26.77;;;17.20;99.90;;;;;;5101662;28;20205;-44
2023/07/14 00:36:14;;;;;;;28.60;26.87;;;17.20;99.90;;;;;;5102399;28;20167;-45
2023/07/14 00:38:40;;;;;;;28.87;27.03;;;17.20;99.90;;;;;;5101701;28;20222;-43
2023/07/14 00:41:21;;;;;;;32.20;30.10;;;17.20;99.90;;;;;;5120100;28;20155;-45
2023/07/14 00:43:47;;;;;;;30.97;28.97;;;17.20;99.90;;;;;;5102079;28;20177;-45
2023/07/14 00:46:27;;;;;;;30.43;28.33;;;17.30;99.90;;;;;;5119595;28;20203;-44
2023/07/14 00:48:58;;;;;;;31.60;29.60;;;17.30;99.90;;;;;;5101010;28;20466;-44
2023/07/14 00:51:26;;;;;;;26.33;24.53;;;17.30;99.90;;;;;;5102337;28;20171;-45
2023/07/14 00:53:52;;;;;;;25.40;23.80;;;17.20;99.90;;;;;;5101524;28;20168;-43
2023/07/14 00:56:44;;;;;;;26.50;24.90;;;17.20;99.90;;;;;;5117955;28;20174;-44
2023/07/14 00:59:16;;;;;;;22.67;21.33;;;17.30;99.90;;;;;;5114799;28;20770;-45
2023/07/14 01:02:21;;;;;;;22.13;20.53;;;17.30;99.90;;;;;;5100687;28;20175;-44
2023/07/14 01:04:58;;;;;;;17.50;16.37;;;17.30;99.90;;;;;;5099945;28;20185;-47
2023/07/14 01:07:35;;;;;;;17.50;16.43;;;17.20;99.90;;;;;;5100917;28;20163;-43
2023/07/14 01:10:01;;;;;;;14.43;13.50;;;17.30;99.90;;;;;;5101175;28;20205;-45
2023/07/14 01:12:29;;;;;;;17.10;15.40;;;17.20;99.90;;;;;;5100962;28;20163;-47
2023/07/14 01:14:57;;;;;;;14.67;13.67;;;17.30;99.90;;;;;;5101096;28;20166;-45
2023/07/14 01:17:23;;;;;;;14.53;13.63;;;17.30;99.90;;;;;;5101217;28;20457;-46
2023/07/14 01:19:54;;;;;;;17.43;16.03;;;17.30;99.90;;;;;;5117453;28;20662;-44
2023/07/14 01:22:41;;;;;;;16.87;15.53;;;17.30;99.90;;;;;;5118620;28;20170;-45
2023/07/14 01:25:34;;;;;;;16.67;15.60;;;17.40;99.90;;;;;;5101661;28;20163;-45
2023/07/14 01:28:03;;;;;;;20.70;19.47;;;17.40;99.90;;;;;;5100900;28;20176;-43
2023/07/14 01:30:29;;;;;;;24.03;22.40;;;17.30;99.90;;;;;;5088670;28;20270;-43
2023/07/14 01:32:55;;;;;;;23.47;22.17;;;17.30;99.90;;;;;;5098474;28;20156;-43
2023/07/14 01:35:28;;;;;;;22.93;21.50;;;17.20;99.90;;;;;;5080222;28;20168;-44
2023/07/14 01:37:54;;;;;;;19.80;18.67;;;17.20;99.90;;;;;;5079796;28;20254;-44
2023/07/14 01:40:21;;;;;;;19.93;18.67;;;17.20;99.90;;;;;;5079503;28;20687;-44
2023/07/14 01:43:03;;;;;;;22.90;21.40;;;17.30;99.90;;;;;;5079767;28;20548;-44
2023/07/14 01:45:57;;;;;;;26.83;25.07;;;17.30;99.90;;;;;;5080687;28;20168;-43
2023/07/14 01:48:28;;;;;;;19.60;18.20;;;17.20;99.90;;;;;;5070403;28;20187;-45
2023/07/14 01:50:59;;;;;;;20.07;18.87;;;17.20;99.90;;;;;;5080079;28;20172;-45
2023/07/14 01:53:29;;;;;;;20.00;18.77;;;17.10;99.90;;;;;;5098294;28;20200;-43
2023/07/14 01:55:59;;;;;;;17.73;16.77;;;17.20;99.90;;;;;;5098049;28;20480;-44
2023/07/14 01:58:35;;;;;;;20.57;19.43;;;17.20;99.90;;;;;;5080031;28;20204;-44
2023/07/14 02:01:03;;;;;;;22.73;21.37;;;17.10;99.90;;;;;;5080300;28;20171;-43
2023/07/14 02:03:39;;;;;;;16.87;15.93;;;17.00;99.90;;;;;;5098228;28;20164;-46
2023/07/14 02:06:05;;;;;;;16.90;15.80;;;17.10;99.90;;;;;;5098817;28;20160;-45
2023/07/14 02:08:31;;;;;;;17.27;16.20;;;17.10;99.90;;;;;;5080265;28;20202;-43
2023/07/14 02:10:57;;;;;;;15.07;13.97;;;17.10;99.90;;;;;;5079732;28;20190;-43
2023/07/14 02:13:23;;;;;;;18.70;17.60;;;17.10;99.90;;;;;;5080771;28;20338;-45
2023/07/14 02:15:51;;;;;;;16.40;15.43;;;17.00;99.90;;;;;;5080722;28;20470;-43
2023/07/14 02:18:20;;;;;;;16.23;15.33;;;17.00;99.90;;;;;;5078617;28;20566;-43
2023/07/14 02:20:47;;;;;;;14.80;13.77;;;16.90;99.90;;;;;;5080539;28;20175;-43
2023/07/14 02:23:19;;;;;;;11.90;11.03;;;16.90;99.90;;;;;;5080530;28;20555;-44
2023/07/14 02:26:09;;;;;;;13.37;12.37;;;16.90;99.90;;;;;;5097127;28;20155;-44
2023/07/14 02:28:35;;;;;;;17.43;11.40;;;16.80;99.90;;;;;;5080407;28;20336;-44
2023/07/14 02:31:25;;;;;;;14.73;13.27;;;16.80;99.90;;;;;;5080120;28;20311;-43
2023/07/14 02:33:52;;;;;;;13.17;12.20;;;16.80;99.90;;;;;;5080020;28;20171;-44
2023/07/14 02:36:32;;;;;;;12.37;11.20;;;16.80;99.90;;;;;;5079856;28;20179;-44
2023/07/14 02:38:59;;;;;;;12.60;11.80;;;16.70;99.90;;;;;;5079118;28;20262;-46
2023/07/14 02:41:38;;;;;;;11.67;10.73;;;16.80;99.90;;;;;;5097564;28;20180;-45
2023/07/14 02:44:08;;;;;;;12.20;11.40;;;16.70;99.90;;;;;;5097560;28;20267;-43
2023/07/14 02:46:53;;;;;;;14.57;11.83;;;16.70;99.90;;;;;;5080264;28;20164;-43
2023/07/14 02:49:18;;;;;;;14.70;13.80;;;16.70;99.90;;;;;;5079731;28;20168;-43
2023/07/14 02:51:44;;;;;;;17.77;16.67;;;16.70;99.90;;;;;;5079791;28;20476;-44
2023/07/14 02:54:10;;;;;;;17.50;16.50;;;16.70;99.90;;;;;;5097655;28;20194;-43
2023/07/14 02:56:36;;;;;;;18.97;17.43;;;16.60;99.90;;;;;;5097955;28;20196;-43
2023/07/14 02:59:02;;;;;;;28.83;27.00;;;16.60;99.90;;;;;;5097890;28;20204;-44
2023/07/14 03:01:29;;;;;;;31.23;29.27;;;16.60;99.90;;;;;;5078041;28;20179;-45
2023/07/14 03:03:56;;;;;;;30.23;28.13;;;16.50;99.90;;;;;;5078176;28;20480;-44
2023/07/14 03:06:23;;;;;;;28.30;26.47;;;16.40;99.90;;;;;;5076211;28;20160;-43
2023/07/14 03:08:48;;;;;;;26.80;24.87;;;16.40;99.90;;;;;;5075260;28;20355;-45
2023/07/14 03:11:14;;;;;;;26.43;24.90;;;16.40;99.90;;;;;;5076922;28;20293;-44
2023/07/14 03:13:40;;;;;;;28.17;26.57;;;16.40;99.90;;;;;;5078262;28;20571;-43
2023/07/14 03:16:06;;;;;;;26.33;24.70;;;16.40;99.90;;;;;;5077575;28;20211;-43
2023/07/14 03:18:31;;;;;;;24.60;22.03;;;16.30;99.90;;;;;;5076988;28;20288;-45
2023/07/14 03:20:59;;;;;;;21.63;20.00;;;16.20;99.90;;;;;;5080843;28;20168;-46
2023/07/14 03:23:25;;;;;;;21.30;19.97;;;16.20;99.90;;;;;;5082612;28;20172;-43
2023/07/14 03:25:55;;;;;;;26.63;25.07;;;16.20;99.90;;;;;;5082492;28;20259;-44
2023/07/14 03:28:21;;;;;;;38.53;36.27;;;16.30;99.90;;;;;;5083138;28;20702;-44
2023/07/14 03:30:47;;;;;;;36.43;34.33;;;16.30;99.90;;;;;;5097910;28;20307;-46
2023/07/14 03:33:13;;;;;;;41.30;38.83;;;16.40;99.90;;;;;;5103166;28;20270;-44
2023/07/14 03:35:38;;;;;;;37.27;34.87;;;16.50;99.90;;;;;;5120740;28;20211;-45
2023/07/14 03:38:04;;;;;;;31.53;29.67;;;16.50;99.90;;;;;;5102691;28;20214;-45
2023/07/14 03:40:30;;;;;;;32.70;30.47;;;16.40;99.90;;;;;;5102260;28;20178;-45
2023/07/14 03:42:56;;;;;;;37.33;34.97;;;16.40;99.90;;;;;;5102339;28;20183;-43
2023/07/14 03:45:22;;;;;;;36.30;33.90;;;16.40;99.90;;;;;;5102708;28;20265;-46
2023/07/14 03:47:49;;;;;;;32.43;30.17;;;16.40;99.90;;;;;;5102977;28;20210;-44
2023/07/14 03:50:15;;;;;;;32.63;30.47;;;16.50;99.90;;;;;;5102934;28;20231;-43
2023/07/14 03:52:44;;;;;;;28.73;26.73;;;16.50;99.90;;;;;;5103934;28;20508;-44
2023/07/14 03:55:32;;;;;;;27.13;25.43;;;16.50;99.90;;;;;;5103592;28;20755;-43
2023/07/14 03:57:58;;;;;;;26.33;24.63;;;16.40;99.90;;;;;;5102879;28;20180;-43
2023/07/14 04:00:24;;;;;;;32.27;29.80;;;16.40;99.90;;;;;;5103360;28;20179;-44
2023/07/14 04:02:49;;;;;;;29.50;27.60;;;16.30;99.90;;;;;;5103372;28;20183;-45
2023/07/14 04:05:15;;;;;;;33.67;31.50;;;16.40;99.90;;;;;;5103059;28;20620;-43
2023/07/14 04:07:42;;;;;;;41.30;38.37;;;16.30;99.90;;;;;;5102543;28;20179;-43
2023/07/14 04:10:09;;;;;;;36.67;34.50;;;16.30;99.90;;;;;;5102501;28;20183;-44
2023/07/14 04:12:35;;;;;;;43.93;41.17;;;16.30;99.90;;;;;;5102835;28;20199;-43
2023/07/14 04:15:01;;;;;;;35.17;32.77;;;16.30;99.90;;;;;;5120010;28;20148;-44
2023/07/14 04:17:29;;;;;;;42.83;40.13;;;16.30;99.90;;;;;;5120307;28;20186;-43
2023/07/14 04:20:13;;;;;;;36.20;33.97;;;16.30;99.90;;;;;;5120045;28;20210;-45
2023/07/14 04:22:38;;;;;;;43.70;41.10;;;16.30;99.90;;;;;;5101917;28;20183;-44
2023/07/14 04:25:05;;;;;;;45.53;42.63;;;16.40;99.90;;;;;;5102159;28;20283;-44
2023/07/14 04:27:33;;;;;;;50.73;47.63;;;16.40;99.90;;;;;;5119683;28;20163;-44
2023/07/14 04:29:59;;;;;;;49.33;46.40;;;16.40;99.90;;;;;;5093568;28;20485;-44
2023/07/14 04:32:26;;;;;;;45.70;42.77;;;16.40;99.90;;;;;;5097782;28;20250;-43
2023/07/14 04:34:51;;;;;;;40.73;38.10;;;16.40;99.90;;;;;;5080481;28;20337;-45
2023/07/14 04:37:17;;;;;;;40.53;37.93;;;16.40;99.90;;;;;;5096824;28;20255;-44
2023/07/14 04:39:44;;;;;;;28.70;26.93;;;16.40;99.90;;;;;;5097203;28;20294;-43
2023/07/14 04:42:10;;;;;;;33.73;31.43;;;16.40;99.90;;;;;;5096860;28;20164;-44
2023/07/14 04:44:36;;;;;;;38.57;36.13;;;16.50;99.90;;;;;;5080133;28;20244;-45
2023/07/14 04:47:02;;;;;;;33.67;31.57;;;16.60;99.90;;;;;;5098497;28;20191;-45
2023/07/14 04:49:28;;;;;;;25.93;24.27;;;16.60;99.90;;;;;;5080027;28;20183;-46
2023/07/14 04:51:54;;;;;;;29.00;27.03;;;16.60;99.90;;;;;;5081063;28;20187;-44
2023/07/14 04:54:23;;;;;;;53.17;49.97;;;16.70;99.90;;;;;;5081287;28;20172;-44
2023/07/14 04:56:50;;;;;;;59.30;55.90;;;16.70;99.90;;;;;;5080904;28;20191;-48
2023/07/14 04:59:16;;;;;;;53.20;49.90;;;16.70;99.90;;;;;;5079889;28;20631;-46
2023/07/14 05:01:41;;;;;;;51.17;47.97;;;16.70;99.90;;;;;;5079633;28;20560;-43
2023/07/14 05:04:07;;;;;;;40.03;37.70;;;16.70;99.90;;;;;;5097410;28;20179;-45
2023/07/14 05:06:33;;;;;;;42.77;40.27;;;16.70;99.90;;;;;;5079750;28;20168;-46
2023/07/14 05:08:59;;;;;;;42.90;40.47;;;16.80;99.90;;;;;;5079427;28;20434;-46
2023/07/14 05:11:25;;;;;;;59.70;56.10;;;16.90;99.90;;;;;;5079474;28;20171;-44
2023/07/14 05:13:52;;;;;;;61.60;58.17;;;16.90;99.90;;;;;;5097397;28;20505;-45
2023/07/14 05:16:17;;;;;;;62.57;58.73;;;17.00;99.90;;;;;;5080173;28;20172;-45
2023/07/14 05:18:43;;;;;;;64.50;60.70;;;17.00;99.90;;;;;;5079248;28;20200;-46
2023/07/14 05:21:09;;;;;;;64.97;61.37;;;17.00;99.90;;;;;;5095272;28;20180;-44
2023/07/14 05:23:35;;;;;;;61.23;56.97;;;17.10;99.90;;;;;;5095159;28;20168;-43
2023/07/14 05:26:03;;;;;;;59.97;56.37;;;17.10;99.90;;;;;;5095375;28;20225;-44
2023/07/14 05:28:29;;;;;;;58.40;55.03;;;17.20;99.90;;;;;;5096134;28;20467;-45
2023/07/14 05:30:55;;;;;;;55.33;51.73;;;17.20;99.90;;;;;;5078543;28;20227;-48
2023/07/14 05:33:21;;;;;;;59.13;55.63;;;17.20;99.90;;;;;;5095947;28;20229;-46
2023/07/14 05:35:48;;;;;;;48.07;45.30;;;17.20;99.90;;;;;;5080240;28;20175;-46
2023/07/14 05:38:14;;;;;;;47.90;45.10;;;17.20;99.90;;;;;;5079581;28;20200;-43
2023/07/14 05:40:40;;;;;;;46.77;43.67;;;17.30;99.90;;;;;;5097645;28;20438;-44
2023/07/14 05:43:06;;;;;;;49.17;46.20;;;17.30;99.90;;;;;;5079139;28;20655;-43
2023/07/14 05:45:32;;;;;;;52.43;49.33;;;17.30;99.90;;;;;;5078801;28;20168;-48
2023/07/14 05:47:58;;;;;;;52.13;49.20;;;17.30;99.90;;;;;;5079151;28;20182;-45
2023/07/14 05:50:24;;;;;;;46.90;43.73;;;17.40;99.90;;;;;;5097145;28;20552;-44
2023/07/14 05:52:51;;;;;;;51.57;48.07;;;17.30;99.90;;;;;;5078465;28;20172;-43
2023/07/14 05:55:17;;;;;;;58.87;55.37;;;17.40;99.90;;;;;;5078573;28;20172;-44
2023/07/14 05:57:43;;;;;;;53.10;49.83;;;17.40;99.90;;;;;;5096460;28;20168;-44
2023/07/14 06:00:13;;;;;;;53.37;50.20;;;17.40;99.90;;;;;;5095384;28;20199;-44
2023/07/14 06:02:40;;;;;;;47.63;44.63;;;17.50;99.90;;;;;;5079373;28;20164;-43
2023/07/14 06:05:08;;;;;;;53.70;50.10;;;17.50;99.90;;;;;;5078027;28;20183;-43
2023/07/14 06:07:34;;;;;;;51.73;48.53;;;17.50;99.90;;;;;;5095429;28;20536;-43
2023/07/14 06:09:59;;;;;;;48.93;45.63;;;17.50;99.90;;;;;;5078400;28;20703;-44
2023/07/14 06:12:26;;;;;;;47.93;44.70;;;17.60;99.90;;;;;;5078708;28;20188;-43
2023/07/14 06:14:51;;;;;;;48.73;45.23;;;17.50;99.90;;;;;;5096149;28;20198;-43
2023/07/14 06:17:17;;;;;;;51.10;47.80;;;17.50;99.90;;;;;;5077662;28;20468;-44
2023/07/14 06:19:43;;;;;;;46.10;43.40;;;17.50;99.90;;;;;;5076964;28;20230;-43
2023/07/14 06:22:09;;;;;;;50.43;47.23;;;17.50;99.90;;;;;;5095456;28;20168;-44
2023/07/14 06:24:35;;;;;;;48.80;45.73;;;17.60;99.90;;;;;;5077173;28;20291;-44
2023/07/14 06:27:02;;;;;;;42.97;40.13;;;17.50;99.90;;;;;;5094043;28;20180;-48
2023/07/14 06:29:28;;;;;;;48.57;45.70;;;17.60;99.90;;;;;;5076997;28;20739;-44
2023/07/14 06:31:54;;;;;;;50.50;47.13;;;17.60;99.90;;;;;;5075191;28;20756;-47
2023/07/14 06:34:21;;;;;;;54.33;49.93;;;17.60;99.90;;;;;;5076490;28;20583;-44
2023/07/14 06:36:46;;;;;;;49.97;46.83;;;17.70;99.90;;;;;;5075885;28;20172;-44
2023/07/14 06:39:12;;;;;;;46.27;43.27;;;17.70;99.90;;;;;;5075730;28;20215;-43
2023/07/14 06:41:38;;;;;;;40.37;37.77;;;17.70;99.90;;;;;;5076813;28;20156;-43
2023/07/14 06:44:03;;;;;;;42.27;39.67;;;17.80;99.90;;;;;;5094446;28;20168;-44
2023/07/14 06:46:30;;;;;;;45.13;42.23;;;17.80;99.90;;;;;;5077621;28;20448;-46
2023/07/14 06:49:04;;;;;;;54.63;51.30;;;17.80;99.90;;;;;;5079757;28;20247;-46
2023/07/14 06:51:30;;;;;;;53.63;50.03;;;17.90;99.90;;;;;;5098522;28;20164;-43
2023/07/14 06:53:56;;;;;;;58.23;54.33;;;18.00;99.90;;;;;;5079720;28;20179;-43
2023/07/14 06:56:23;;;;;;;39.67;37.17;;;18.00;99.90;;;;;;5079391;28;20175;-44
2023/07/14 06:58:49;;;;;;;41.33;38.77;;;18.00;99.90;;;;;;5079091;28;20204;-44
2023/07/14 07:01:18;;;;;;;44.03;41.37;;;18.10;99.90;;;;;;5079117;28;20652;-43
2023/07/14 07:03:43;;;;;;;56.33;53.13;;;18.10;99.90;;;;;;5078626;28;20164;-44
2023/07/14 07:06:10;;;;;;;41.63;39.07;;;18.20;99.90;;;;;;5078734;28;20259;-44
2023/07/14 07:08:36;;;;;;;46.50;43.33;;;18.20;99.90;;;;;;5080350;28;20180;-45
2023/07/14 07:11:02;;;;;;;81.67;76.87;;;18.30;99.90;;;;;;5080653;28;20196;-46
2023/07/14 07:13:27;;;;;;;90.40;84.70;;;18.30;99.90;;;;;;5080406;28;20633;-44
2023/07/14 07:15:53;;;;;;;95.77;90.70;;;18.30;99.90;;;;;;5080041;28;20176;-45
2023/07/14 07:18:24;;;;;;;93.30;88.13;;;18.50;99.90;;;;;;5097452;28;20769;-45
2023/07/14 07:20:50;;;;;;;77.43;73.23;;;18.50;99.90;;;;;;5079359;28;20702;-43
2023/07/14 07:23:16;;;;;;;61.43;58.00;;;18.50;99.90;;;;;;5078972;28;20172;-43
2023/07/14 07:25:50;;;;;;;54.23;51.17;;;18.50;99.90;;;;;;5080037;28;20178;-44
2023/07/14 07:28:17;;;;;;;53.73;50.40;;;18.50;99.90;;;;;;5097430;28;20259;-47
2023/07/14 07:30:43;;;;;;;49.53;46.73;;;18.60;99.90;;;;;;5111370;28;20226;-45
2023/07/14 07:33:09;;;;;;;50.87;47.77;;;18.60;99.90;;;;;;5099448;28;20171;-44
2023/07/14 07:35:40;;;;;;;47.30;44.10;;;18.70;99.90;;;;;;5099292;28;20254;-43
2023/07/14 07:38:07;;;;;;;40.60;38.00;;;18.70;99.90;;;;;;5098938;28;20178;-44
2023/07/14 07:40:33;;;;;;;42.20;39.57;;;18.70;99.90;;;;;;5099815;28;20478;-45
2023/07/14 07:43:01;;;;;;;41.60;39.37;;;18.70;99.90;;;;;;5116617;28;20478;-45
2023/07/14 07:45:27;;;;;;;46.63;43.33;;;18.70;99.90;;;;;;5097591;28;20664;-46
2023/07/14 07:47:52;;;;;;;51.57;48.57;;;18.90;99.90;;;;;;5095599;28;20711;-43
2023/07/14 07:50:18;;;;;;;49.37;46.43;;;18.90;99.90;;;;;;5096738;28;20171;-47
2023/07/14 07:52:45;;;;;;;54.23;51.17;;;18.90;99.90;;;;;;5097921;28;20175;-44
2023/07/14 07:55:11;;;;;;;60.93;57.33;;;19.00;99.90;;;;;;5097648;28;20172;-47
2023/07/14 07:57:37;;;;;;;61.80;58.47;;;19.00;99.90;;;;;;5097149;28;20167;-43
2023/07/14 08:00:07;;;;;;;55.83;52.70;;;19.00;99.90;;;;;;5095461;28;20498;-44
2023/07/14 08:02:35;;;;;;;62.77;59.13;;;19.10;99.90;;;;;;5095818;28;20241;-45
2023/07/14 08:05:01;;;;;;;65.57;61.43;;;19.10;99.90;;;;;;5095334;28;20163;-45
2023/07/14 08:07:27;;;;;;;70.33;66.23;;;19.10;99.90;;;;;;5094544;28;20564;-44
2023/07/14 08:09:53;;;;;;;65.43;61.50;;;19.10;99.90;;;;;;5093865;28;20167;-43
2023/07/14 08:12:19;;;;;;;63.30;59.70;;;19.20;99.90;;;;;;5094952;28;20163;-43
2023/07/14 08:14:53;;;;;;;69.67;65.77;;;19.30;99.90;;;;;;5097343;28;20175;-44
2023/07/14 08:17:27;;;;;;;75.40;70.90;;;19.40;99.90;;;;;;5113510;28;20522;-44
2023/07/14 08:19:53;;;;;;;80.13;75.80;;;19.40;99.90;;;;;;5096070;28;20195;-43
2023/07/14 08:22:23;;;;;;;76.57;72.50;;;19.40;99.90;;;;;;5114810;28;20159;-45
2023/07/14 08:24:49;;;;;;;70.77;66.83;;;19.40;99.90;;;;;;5097658;28;20571;-45
2023/07/14 08:27:15;;;;;;;70.63;66.60;;;19.40;99.90;;;;;;5097117;28;20177;-48
2023/07/14 08:29:42;;;;;;;67.77;63.77;;;19.50;99.90;;;;;;5092409;28;20228;-44
2023/07/14 08:32:08;;;;;;;69.33;65.57;;;19.50;99.90;;;;;;5093103;28;20187;-47
2023/07/14 08:34:34;;;;;;;64.93;61.40;;;19.50;99.90;;;;;;5092442;28;20171;-45
2023/07/14 08:37:00;;;;;;;60.27;57.00;;;19.60;99.90;;;;;;5092751;28;20164;-47
2023/07/14 08:39:26;;;;;;;61.80;58.60;;;19.60;99.90;;;;;;5091695;28;20218;-43
2023/07/14 08:41:56;;;;;;;66.17;62.20;;;19.70;99.90;;;;;;5091549;28;20225;-48
2023/07/14 08:44:55;;;;;;;78.00;73.90;;;19.70;99.90;;;;;;5085981;28;20293;-44
2023/07/14 08:47:36;;;;;;;55.83;52.70;;;19.80;99.90;;;;;;5085565;28;20600;-43
2023/07/14 08:50:10;;;;;;;54.13;51.13;;;19.80;99.90;;;;;;5088049;28;20552;-43
2023/07/14 08:52:38;;;;;;;66.60;63.10;;;19.80;99.90;;;;;;5093183;28;20172;-44
2023/07/14 08:55:18;;;;;;;57.97;54.93;;;19.80;99.90;;;;;;5094067;28;20175;-42
2023/07/14 08:57:50;;;;;;;69.97;66.47;;;19.80;99.90;;;;;;5094850;28;20240;-43
2023/07/14 09:00:37;;;;;;;82.00;77.70;;;19.80;99.90;;;;;;5094908;28;20210;-43
2023/07/14 09:03:21;;;;;;;83.13;78.80;;;19.80;99.90;;;;;;5093371;28;20176;-43
2023/07/14 09:05:54;;;;;;;43.77;41.20;;;19.80;99.90;;;;;;5094151;28;20793;-44
2023/07/14 09:08:27;;;;;;;44.37;41.70;;;19.90;99.90;;;;;;5093560;28;20200;-43
2023/07/14 09:11:02;;;;;;;57.80;54.73;;;19.90;99.90;;;;;;5092890;28;20314;-43
2023/07/14 09:13:54;;;;;;;39.33;37.17;;;19.90;99.90;;;;;;5094764;28;20240;-43
2023/07/14 09:16:23;;;;;;;60.17;56.97;;;20.00;99.90;;;;;;5093442;28;20167;-44
2023/07/14 09:19:07;;;;;;;24.00;22.63;;;20.10;99.90;;;;;;5091641;28;20200;-42
2023/07/14 09:21:50;;;;;;;20.53;19.33;;;20.10;99.90;;;;;;5091249;28;20164;-44
2023/07/14 09:24:43;;;;;;;7.77;6.00;;;20.10;99.90;;;;;;5090423;28;20531;-43
2023/07/14 09:27:30;;;;;;;8.60;7.03;;;20.30;99.90;;;;;;5089851;28;20725;-43
2023/07/14 09:29:57;;;;;;;5.83;5.27;;;20.40;99.90;;;;;;5089449;28;20223;-43
2023/07/14 09:32:39;;;;;;;5.17;4.17;;;20.40;99.90;;;;;;5090061;28;20452;-43
2023/07/14 09:35:18;;;;;;;5.93;5.43;;;20.40;99.90;;;;;;5090185;28;20190;-42
2023/07/14 09:38:03;;;;;;;4.73;4.33;;;20.40;99.90;;;;;;5091513;28;20225;-46
2023/07/14 09:40:49;;;;;;;4.13;3.30;;;20.40;99.90;;;;;;5091569;28;20186;-44
2023/07/14 09:43:14;;;;;;;5.07;4.57;;;20.40;99.90;;;;;;5091982;28;20613;-43
2023/07/14 09:45:40;;;;;;;7.07;6.43;;;20.60;99.90;;;;;;5091145;28;20195;-45
2023/07/14 09:48:16;;;;;;;5.43;5.03;;;20.60;99.90;;;;;;5090550;28;20187;-44
2023/07/14 09:51:26;;;;;;;7.00;5.87;;;20.70;99.90;;;;;;5091818;28;20175;-46
2023/07/14 09:54:10;;;;;;;5.40;4.90;;;20.80;99.90;;;;;;5089576;28;20180;-45
2023/07/14 09:56:42;;;;;;;6.40;5.70;;;20.90;99.90;;;;;;5090484;28;20743;-44
2023/07/14 09:59:19;;;;;;;6.00;5.57;;;20.90;99.90;;;;;;5092262;28;20809;-44
2023/07/14 10:01:54;;;;;;;10.60;6.20;;;21.00;99.90;;;;;;5090529;28;20197;-45
2023/07/14 10:04:27;;;;;;;8.80;8.10;;;21.00;99.90;;;;;;5090950;28;20164;-44
2023/07/14 10:07:25;;;;;;;9.23;8.20;;;21.10;99.90;;;;;;5088325;28;20172;-44
2023/07/14 10:10:09;;;;;;;10.90;10.20;;;21.20;99.90;;;;;;5088880;28;20172;-44
2023/07/14 10:12:42;;;;;;;13.83;13.00;;;21.30;99.90;;;;;;5072293;28;20176;-43
2023/07/14 10:15:35;;;;;;;15.87;14.97;;;21.30;99.90;;;;;;5088316;28;20783;-44
2023/07/14 10:18:13;;;;;;;9.13;8.47;;;21.30;99.90;;;;;;5087836;28;20172;-48
2023/07/14 10:20:40;;;;;;;9.53;8.73;;;21.30;99.90;;;;;;5072177;28;20224;-43
2023/07/14 10:23:15;;;;;;;14.40;13.53;;;21.20;99.90;;;;;;5089310;28;20164;-45
2023/07/14 10:25:47;;;;;;;19.30;18.03;;;21.10;99.90;;;;;;5089345;28;20167;-46
2023/07/14 10:28:19;;;;;;;22.90;21.70;;;21.10;99.90;;;;;;5089072;28;20164;-44
2023/07/14 10:31:33;;;;;;;20.10;18.73;;;21.00;99.90;;;;;;5079379;28;20212;-43
2023/07/14 10:34:24;;;;;;;8.23;7.70;;;21.10;99.90;;;;;;5035782;28;20168;-43
2023/07/14 10:36:54;;;;;;;6.63;6.13;;;20.90;99.90;;;;;;5072025;28;20176;-42
2023/07/14 10:39:45;;;;;;;7.70;7.20;;;20.90;99.90;;;;;;5071260;28;20330;-43
2023/07/14 10:42:20;;;;;;;8.23;6.77;;;20.90;99.90;;;;;;5072079;28;20166;-44
2023/07/14 10:44:47;;;;;;;11.43;10.57;;;21.00;99.90;;;;;;5071189;28;20232;-43
2023/07/14 10:47:22;;;;;;;13.33;12.53;;;21.00;99.90;;;;;;5087926;28;20152;-43
2023/07/14 10:50:35;;;;;;;23.13;21.83;;;21.10;99.90;;;;;;5072256;28;20183;-44
2023/07/14 10:53:14;;;;;;;24.37;22.90;;;21.10;99.90;;;;;;4996340;28;20182;-43
2023/07/14 10:55:43;;;;;;;18.30;17.03;;;21.10;99.90;;;;;;5074469;28;20418;-43
2023/07/14 10:58:13;;;;;;;21.57;20.33;;;21.20;99.90;;;;;;5074402;28;20183;-45
2023/07/14 11:00:55;;;;;;;23.00;21.90;;;21.20;99.90;;;;;;5092495;28;20165;-44
2023/07/14 11:03:29;;;;;;;16.17;15.17;;;21.20;99.90;;;;;;5073518;28;20167;-43
2023/07/14 11:06:28;;;;;;;16.10;14.90;;;21.30;99.90;;;;;;5091773;28;20168;-43
2023/07/14 11:08:56;;;;;;;13.07;12.17;;;21.40;99.90;;;;;;5074443;28;20492;-44
2023/07/14 11:12:04;;;;;;;13.83;12.93;;;21.50;99.90;;;;;;5073520;28;20172;-45
2023/07/14 11:14:51;;;;;;;14.83;12.47;;;21.50;99.90;;;;;;5074069;28;20172;-43
2023/07/14 11:17:43;;;;;;;8.17;7.37;;;21.60;99.90;;;;;;5073785;28;20172;-46
2023/07/14 11:20:57;;;;;;;8.33;7.67;;;21.50;99.90;;;;;;5071845;28;20204;-44
2023/07/14 11:23:56;;;;;;;9.87;8.87;;;21.50;99.90;;;;;;4970517;28;20195;-44
2023/07/14 11:26:28;;;;;;;9.87;9.17;;;21.40;99.90;;;;;;4971705;28;20172;-46
2023/07/14 11:29:12;;;;;;;9.80;9.10;;;21.30;99.90;;;;;;5047189;28;20195;-43
2023/07/14 11:31:49;;;;;;;8.97;8.40;;;21.20;99.90;;;;;;5073940;28;20286;-43
2023/07/14 11:34:36;;;;;;;10.60;9.90;;;21.20;99.90;;;;;;5076526;28;20172;-47
2023/07/14 11:37:36;;;;;;;9.47;8.87;;;21.20;99.90;;;;;;5092446;28;20654;-44
2023/07/14 11:40:09;;;;;;;11.07;10.30;;;21.20;99.90;;;;;;5093457;28;20210;-48
2023/07/14 11:42:38;;;;;;;18.17;17.10;;;21.20;99.90;;;;;;5058943;28;20179;-43
2023/07/14 11:45:16;;;;;;;19.00;17.90;;;21.20;99.90;;;;;;5074331;28;20175;-46
2023/07/14 11:47:43;;;;;;;12.60;11.93;;;21.30;99.90;;;;;;5075422;28;20807;-45
2023/07/14 11:50:18;;;;;;;9.60;9.00;;;21.30;99.90;;;;;;5040455;28;20174;-43
2023/07/14 11:53:02;;;;;;;10.37;9.53;;;21.40;99.90;;;;;;5036730;28;20173;-44
2023/07/14 11:55:30;;;;;;;7.73;6.93;;;21.40;99.90;;;;;;5036149;28;20524;-44
2023/07/14 11:58:20;;;;;;;8.03;7.33;;;21.50;99.90;;;;;;5036391;28;20169;-43
2023/07/14 12:01:15;;;;;;;8.43;7.87;;;21.50;99.90;;;;;;5037346;28;20193;-44
2023/07/14 12:03:48;;;;;;;10.30;9.57;;;21.70;99.90;;;;;;5054324;28;20706;-43
2023/07/14 12:06:22;;;;;;;14.80;14.00;;;21.80;99.90;;;;;;5037301;28;20238;-45
2023/07/14 12:09:03;;;;;;;8.00;6.57;;;21.90;99.90;;;;;;5053844;28;20260;-44
2023/07/14 12:11:37;;;;;;;6.47;6.03;;;22.00;99.90;;;;;;5053663;28;20165;-44
2023/07/14 12:14:23;;;;;;;8.13;7.43;;;22.00;99.90;;;;;;5035508;28;20177;-43
2023/07/14 12:16:48;;;;;;;10.47;9.70;;;22.10;99.90;;;;;;5034430;28;20226;-48
2023/07/14 12:19:32;;;;;;;8.63;8.03;;;22.20;99.90;;;;;;5071832;28;20208;-43
2023/07/14 12:22:09;;;;;;;8.17;7.60;;;22.20;99.90;;;;;;5055512;28;20176;-44
2023/07/14 12:24:42;;;;;;;7.43;6.80;;;22.30;99.90;;;;;;5055047;28;20214;-44
2023/07/14 12:27:20;;;;;;;4.13;3.83;;;22.20;99.90;;;;;;5055725;28;20672;-43
2023/07/14 12:29:50;;;;;;;62.53;59.37;;;22.20;99.90;;;;;;5076799;28;20223;-43
2023/07/14 12:32:20;;;;;;;57.07;54.27;;;22.20;99.90;;;;;;5092992;28;20725;-44
2023/07/14 12:34:46;;;;;;;54.63;51.83;;;22.10;99.90;;;;;;5093301;28;20255;-43
2023/07/14 12:37:18;;;;;;;50.13;47.53;;;22.10;99.90;;;;;;5076678;28;20164;-43
2023/07/14 12:39:50;;;;;;;44.73;42.40;;;22.10;99.90;;;;;;5095290;28;20200;-43
2023/07/14 12:42:18;;;;;;;45.37;42.97;;;22.00;99.90;;;;;;5090168;28;20187;-43
2023/07/14 12:44:44;;;;;;;38.13;36.03;;;22.00;99.90;;;;;;5078141;28;20671;-43
2023/07/14 12:47:18;;;;;;;38.83;36.83;;;22.10;99.90;;;;;;5076255;28;20172;-48
2023/07/14 12:49:52;;;;;;;39.20;36.93;;;22.00;99.90;;;;;;5076996;28;20176;-46
2023/07/14 12:52:33;;;;;;;35.47;33.57;;;22.10;99.90;;;;;;5074026;28;20171;-46
2023/07/14 12:55:11;;;;;;;32.07;30.27;;;22.10;99.90;;;;;;5072827;28;20667;-43